Time;durP1;ratioP1;P1;durP2;ratioP2;P2;SDS_P1;SDS_P2;PMS_P1;PMS_P2;Temp;Humidity;BMP_temperature;BMP_pressure;BME280_temperature;BME280_humidity;BME280_pressure;Samples;Min_cycle;Max_cycle;Signal;HPM_P1;HPM_P2
2023/10/25 00:01:58;;;;;;;84.38;45.67;;;;;;;16.87;89.20;100131.69;4953017;28;20054;-79
2023/10/25 00:04:25;;;;;;;86.95;45.08;;;;;;;16.80;89.08;100128.94;4951596;28;20315;-79
2023/10/25 00:06:53;;;;;;;78.15;40.05;;;;;;;16.91;88.84;100132.94;4948710;28;20042;-79
2023/10/25 00:09:19;;;;;;;74.10;38.72;;;;;;;16.85;88.88;100139.09;4959552;28;20278;-79
2023/10/25 00:11:46;;;;;;;74.93;39.13;;;;;;;16.88;88.70;100133.34;4955588;28;20073;-79
2023/10/25 00:14:14;;;;;;;78.68;39.72;;;;;;;16.67;88.00;100108.13;4957394;28;20058;-78
2023/10/25 00:16:40;;;;;;;71.90;36.92;;;;;;;16.22;88.48;100036.88;4951604;28;20456;-78
2023/10/25 00:19:13;;;;;;;69.10;36.50;;;;;;;16.62;88.51;100112.38;4950522;28;20058;-80
2023/10/25 00:21:43;;;;;;;73.15;37.25;;;;;;;16.82;88.27;100129.56;4952649;28;20384;-80
2023/10/25 00:24:10;;;;;;;71.10;37.05;;;;;;;16.84;87.86;100126.69;4961814;28;20077;-80
2023/10/25 00:26:38;;;;;;;62.42;35.67;;;;;;;16.82;87.29;100132.25;4967262;28;20085;-78
2023/10/25 00:29:05;;;;;;;64.30;35.70;;;;;;;16.73;87.43;100119.94;4958149;28;20834;-80
2023/10/25 00:31:31;;;;;;;67.97;36.42;;;;;;;16.56;87.94;100099.75;4961449;28;20901;-78
2023/10/25 00:33:58;;;;;;;51.33;28.70;;;;;;;16.50;87.27;100071.00;4967968;28;20401;-79
2023/10/25 00:36:26;;;;;;;51.10;28.73;;;;;;;16.43;87.25;100077.13;4947666;28;20482;-79
2023/10/25 00:38:53;;;;;;;49.35;27.02;;;;;;;16.56;86.74;100105.09;4975946;28;20141;-80
2023/10/25 00:41:20;;;;;;;45.30;27.73;;;;;;;16.69;86.65;100118.66;4966471;28;20100;-79
2023/10/25 00:43:46;;;;;;;45.40;25.00;;;;;;;16.14;86.83;100031.63;4975952;28;20149;-80
2023/10/25 00:46:22;;;;;;;44.55;26.75;;;;;;;16.48;86.94;100086.44;4975823;28;20530;-78
2023/10/25 00:48:54;;;;;;;45.95;27.15;;;;;;;16.54;86.29;100096.41;4959864;28;20365;-79
2023/10/25 00:51:22;;;;;;;45.42;26.08;;;;;;;16.34;86.64;100064.03;4930287;28;20058;-79
2023/10/25 00:53:51;;;;;;;46.08;24.70;;;;;;;16.54;86.42;100093.75;4944801;28;20473;-80
2023/10/25 00:56:29;;;;;;;42.92;24.08;;;;;;;16.49;86.04;100080.06;4945488;28;20073;-80
2023/10/25 00:58:58;;;;;;;45.03;24.45;;;;;;;16.57;85.39;100112.13;4943104;28;20492;-78
2023/10/25 01:01:29;;;;;;;49.13;27.17;;;;;;;16.01;85.66;100029.59;4933432;28;20338;-79
2023/10/25 01:03:56;;;;;;;45.45;25.73;;;;;;;16.44;86.19;100113.59;4941001;28;20089;-79
2023/10/25 01:06:24;;;;;;;42.97;23.58;;;;;;;16.43;85.68;100103.94;4943613;28;20580;-79
2023/10/25 01:08:53;;;;;;;40.13;23.25;;;;;;;16.18;85.80;100073.09;4935375;28;20061;-79
2023/10/25 01:11:22;;;;;;;39.35;22.05;;;;;;;16.60;85.73;100127.81;4949292;28;20058;-79
2023/10/25 01:13:49;;;;;;;41.90;22.80;;;;;;;16.66;85.67;100129.75;4951359;28;20815;-78
2023/10/25 01:16:16;;;;;;;44.42;24.85;;;;;;;15.97;84.50;100014.94;4948905;28;20701;-79
2023/10/25 01:18:43;;;;;;;47.20;24.23;;;;;;;16.56;84.86;100107.78;4948203;28;20046;-78
2023/10/25 01:21:11;;;;;;;44.25;24.60;;;;;;;16.68;85.34;100108.97;4945770;28;20098;-78
2023/10/25 01:23:38;;;;;;;32.80;18.77;;;;;;;16.86;85.29;100112.06;4946981;28;20046;-79
2023/10/25 01:26:06;;;;;;;38.67;22.13;;;;;;;16.79;84.76;100097.75;4954688;28;20050;-79
2023/10/25 01:28:33;;;;;;;44.50;24.23;;;;;;;16.70;84.20;100104.25;4940811;28;20800;-79
2023/10/25 01:31:02;;;;;;;40.50;22.17;;;;;;;16.73;84.13;100111.91;4937916;28;20903;-81
2023/10/25 01:33:29;;;;;;;46.78;25.90;;;;;;;16.68;83.74;100108.97;4939128;28;20049;-80
2023/10/25 01:35:56;;;;;;;39.05;23.63;;;;;;;16.63;84.21;100114.88;4920126;28;20152;-79
2023/10/25 01:38:22;;;;;;;38.33;21.58;;;;;;;16.40;84.02;100090.06;4934186;28;20050;-80
2023/10/25 01:40:50;;;;;;;40.50;24.38;;;;;;;16.44;84.60;100062.72;4924160;28;20050;-80
2023/10/25 01:43:17;;;;;;;23.25;15.13;;;;;;;16.57;84.77;100098.72;4923970;28;20453;-79
2023/10/25 01:45:44;;;;;;;40.70;25.80;;;;;;;16.57;84.48;100088.00;4933972;28;20066;-79
2023/10/25 01:48:11;;;;;;;46.22;24.77;;;;;;;16.40;84.12;100066.78;4933201;28;20102;-78
2023/10/25 01:50:42;;;;;;;45.25;24.25;;;;;;;16.17;85.75;100007.16;4953145;28;20050;-79
2023/10/25 01:53:10;;;;;;;41.70;24.92;;;;;;;16.25;83.96;100017.75;4959637;28;20182;-80
2023/10/25 01:55:40;;;;;;;42.85;25.88;;;;;;;16.74;84.99;100084.06;4954505;28;20069;-78
2023/10/25 01:58:08;;;;;;;38.92;22.60;;;;;;;16.66;84.14;100081.50;4961913;28;20420;-79
2023/10/25 02:00:40;;;;;;;40.63;24.50;;;;;;;16.52;83.83;100068.97;4936780;28;20057;-79
2023/10/25 02:03:09;;;;;;;;;;;;;;;16.56;84.19;100083.66;4970557;28;20109;-78
2023/10/25 02:05:38;;;;;;;38.83;19.75;;;;;;;16.71;85.77;100068.38;4982717;28;19922;-79
2023/10/25 02:08:07;;;;;;;29.63;17.33;;;;;;;16.91;84.97;100068.59;4942000;28;20078;-80
2023/10/25 02:10:34;;;;;;;29.23;17.65;;;;;;;16.90;84.15;100066.13;4958454;28;20412;-80
2023/10/25 02:13:01;;;;;;;42.83;25.17;;;;;;;16.87;82.19;100078.06;4932760;28;20105;-79
2023/10/25 02:15:28;;;;;;;37.80;23.05;;;;;;;16.81;83.84;100074.28;4941596;28;20144;-79
2023/10/25 02:17:55;;;;;;;42.13;24.67;;;;;;;16.78;82.80;100101.47;4925349;28;20061;-80
2023/10/25 02:20:23;;;;;;;42.22;24.90;;;;;;;16.32;82.43;100048.13;4929344;28;20050;-80
2023/10/25 02:22:50;;;;;;;24.95;14.25;;;;;;;16.37;83.59;100059.13;4964225;28;20143;-80
2023/10/25 02:25:16;;;;;;;44.55;25.60;;;;;;;16.43;83.23;100079.81;4977775;28;20046;-79
2023/10/25 02:27:45;;;;;;;40.80;23.67;;;;;;;16.31;82.95;100084.00;4974182;28;20457;-81
2023/10/25 02:30:12;;;;;;;44.00;25.45;;;;;;;16.18;83.86;100083.78;4973062;28;20060;-79
2023/10/25 02:32:39;;;;;;;43.72;24.60;;;;;;;16.21;84.56;100099.47;4968764;28;20050;-79
2023/10/25 02:35:06;;;;;;;22.88;13.23;;;;;;;16.06;85.80;100016.50;4930542;28;20492;-80
2023/10/25 02:37:34;;;;;;;24.65;12.63;;;;;;;16.56;84.18;100092.53;4947191;28;20380;-80
2023/10/25 02:40:01;;;;;;;27.67;16.80;;;;;;;16.78;84.75;100096.13;4939096;28;20050;-81
2023/10/25 02:42:28;;;;;;;33.17;22.05;;;;;;;16.84;83.54;100094.50;4965014;28;20451;-80
2023/10/25 02:44:55;;;;;;;41.15;24.35;;;;;;;16.63;82.13;100081.91;4947604;28;20050;-80
2023/10/25 02:47:22;;;;;;;43.90;25.52;;;;;;;16.65;82.33;100093.22;4949903;28;20586;-79
2023/10/25 02:49:49;;;;;;;43.85;24.88;;;;;;;16.43;82.77;100077.13;4945365;28;20042;-79
2023/10/25 02:52:16;;;;;;;47.35;26.45;;;;;;;16.54;83.53;100089.19;4950015;28;20494;-80
2023/10/25 02:54:46;;;;;;;42.40;24.67;;;;;;;16.37;82.85;100087.75;4941321;28;20054;-80
2023/10/25 02:57:15;;;;;;;43.38;24.42;;;;;;;16.27;82.46;100088.03;4950878;28;20570;-80
2023/10/25 02:59:42;;;;;;;42.10;24.02;;;;;;;16.20;82.60;100081.75;4951771;28;20054;-79
2023/10/25 03:02:09;;;;;;;41.00;24.33;;;;;;;16.12;83.16;100098.75;4955433;28;20628;-79
2023/10/25 03:04:40;;;;;;;39.60;22.70;;;;;;;15.92;83.57;100061.00;4933888;28;20046;-80
2023/10/25 03:07:10;;;;;;;37.10;23.02;;;;;;;16.08;83.76;100105.50;4935745;28;20146;-79
2023/10/25 03:09:37;;;;;;;41.65;23.98;;;;;;;16.06;83.59;100090.63;4938137;28;20071;-79
2023/10/25 03:12:07;;;;;;;40.63;24.58;;;;;;;15.98;83.68;100079.00;4937751;28;20322;-80
2023/10/25 03:14:34;;;;;;;20.45;12.93;;;;;;;16.18;85.63;100057.03;4946786;28;20051;-78
2023/10/25 03:17:03;;;;;;;40.42;23.05;;;;;;;16.45;83.26;100080.44;4956886;28;20318;-78
2023/10/25 03:19:30;;;;;;;40.63;24.08;;;;;;;15.67;82.19;99979.28;4951691;28;20058;-79
2023/10/25 03:21:58;;;;;;;48.72;25.65;;;;;;;16.24;82.53;100083.88;4955858;28;20046;-79
2023/10/25 03:24:25;;;;;;;37.80;23.25;;;;;;;16.08;82.97;100077.91;4953370;28;20050;-79
2023/10/25 03:26:52;;;;;;;41.75;24.50;;;;;;;16.08;83.29;100108.19;4968635;28;20053;-79
2023/10/25 03:29:19;;;;;;;24.25;15.48;;;;;;;16.04;83.88;100077.41;4962380;28;20050;-79
2023/10/25 03:31:46;;;;;;;42.47;25.35;;;;;;;16.21;83.88;100099.47;4956915;28;20492;-78
2023/10/25 03:34:14;;;;;;;33.53;19.10;;;;;;;15.70;84.31;100013.72;4944124;28;20047;-77
2023/10/25 03:36:42;;;;;;;38.65;23.02;;;;;;;16.21;83.64;100096.81;4939228;28;20755;-81
2023/10/25 03:39:10;;;;;;;23.67;14.07;;;;;;;15.89;83.63;100049.81;4943415;28;20062;-80
2023/10/25 03:41:37;;;;;;;33.28;20.92;;;;;;;16.13;84.55;100070.97;4945434;28;20112;-80
2023/10/25 03:44:09;;;;;;;44.20;25.73;;;;;;;16.39;83.36;100107.97;4961025;28;20046;-80
2023/10/25 03:46:40;;;;;;;32.17;20.23;;;;;;;16.27;81.71;100096.06;4964435;28;20046;-79
2023/10/25 03:49:07;;;;;;;37.75;23.23;;;;;;;15.98;81.73;100070.16;4950333;28;20042;-78
2023/10/25 03:51:34;;;;;;;47.08;25.95;;;;;;;16.02;81.53;100101.72;4945017;28;20484;-79
2023/10/25 03:54:01;;;;;;;34.40;22.00;;;;;;;15.49;82.06;100044.69;4941594;28;20257;-78
2023/10/25 03:56:28;;;;;;;44.85;24.58;;;;;;;15.78;82.64;100105.47;4957311;28;20093;-79
2023/10/25 03:58:55;;;;;;;39.63;22.52;;;;;;;15.85;84.08;100104.72;4957876;28;20542;-79
2023/10/25 04:01:22;;;;;;;15.50;10.70;;;;;;;15.88;84.20;100093.69;4943507;28;20544;-80
2023/10/25 04:03:49;;;;;;;41.00;21.52;;;;;;;15.97;85.13;100071.13;4952589;28;20153;-79
2023/10/25 04:06:16;;;;;;;42.13;24.40;;;;;;;16.31;84.40;100113.44;4948305;28;20050;-79
2023/10/25 04:08:43;;;;;;;39.22;23.17;;;;;;;16.17;81.74;100108.94;4933919;28;20086;-79
2023/10/25 04:11:10;;;;;;;43.95;25.52;;;;;;;15.90;81.30;100096.97;4950009;28;20050;-79
2023/10/25 04:13:37;;;;;;;41.45;23.42;;;;;;;15.91;83.03;100093.31;4964132;28;20139;-79
2023/10/25 04:16:10;;;;;;;38.53;21.83;;;;;;;15.74;82.22;100081.94;4953769;28;20183;-79
2023/10/25 04:18:37;;;;;;;42.95;22.15;;;;;;;15.68;82.72;100093.31;4946145;28;20112;-79
2023/10/25 04:21:11;;;;;;;39.15;23.00;;;;;;;15.62;82.75;100100.25;4936742;28;20057;-80
2023/10/25 04:23:38;;;;;;;39.40;23.50;;;;;;;15.67;84.24;100087.16;4935536;28;20145;-79
2023/10/25 04:26:13;;;;;;;41.13;22.77;;;;;;;16.00;85.23;100108.28;4986791;28;20061;-80
2023/10/25 04:28:43;;;;;;;45.65;21.70;;;;;;;15.95;83.21;100106.16;4978781;28;20144;-80
2023/10/25 04:31:11;;;;;;;42.53;24.38;;;;;;;15.69;82.52;100089.66;4958812;28;20057;-78
2023/10/25 04:33:40;;;;;;;46.85;25.55;;;;;;;15.57;82.87;100086.59;4961292;28;20056;-79
2023/10/25 04:36:07;;;;;;;18.60;11.88;;;;;;;15.81;84.57;100104.28;4965095;28;20477;-79
2023/10/25 04:38:35;;;;;;;20.10;12.68;;;;;;;16.15;85.77;100102.91;4964939;28;20587;-80
2023/10/25 04:41:02;;;;;;;46.45;25.45;;;;;;;16.10;83.20;100073.19;4939464;28;20401;-80
2023/10/25 04:43:28;;;;;;;39.38;22.33;;;;;;;16.03;82.07;100079.28;4942237;28;20076;-79
2023/10/25 04:45:57;;;;;;;40.55;22.27;;;;;;;15.85;81.58;100089.53;4959705;28;20078;-80
2023/10/25 04:48:25;;;;;;;25.20;15.02;;;;;;;15.86;82.85;100107.25;4956934;28;20511;-80
2023/10/25 04:50:52;;;;;;;19.38;11.93;;;;;;;16.15;84.50;100127.84;4971474;28;20076;-80
2023/10/25 04:53:20;;;;;;;45.72;24.88;;;;;;;16.11;84.65;100077.53;4965688;28;20061;-79
2023/10/25 04:55:48;;;;;;;40.05;23.40;;;;;;;16.23;81.17;100100.13;4981758;28;20137;-78
2023/10/25 04:58:15;;;;;;;47.33;23.05;;;;;;;16.09;81.51;100103.66;4960000;28;20266;-79
2023/10/25 05:00:41;;;;;;;43.40;26.00;;;;;;;15.94;81.98;100125.06;4940085;28;20120;-79
2023/10/25 05:03:11;;;;;;;27.25;14.82;;;;;;;15.94;83.77;100119.69;4942712;28;20069;-80
2023/10/25 05:05:39;;;;;;;46.58;25.10;;;;;;;15.62;84.51;100040.56;4949335;28;20047;-81
2023/10/25 05:08:10;;;;;;;24.35;14.25;;;;;;;16.10;83.35;100100.78;4953781;28;20306;-78
2023/10/25 05:10:37;;;;;;;50.30;26.47;;;;;;;15.68;83.61;100027.28;4959191;28;20081;-79
2023/10/25 05:13:05;;;;;;;46.92;25.45;;;;;;;16.02;82.13;100101.72;4963217;28;20703;-79
2023/10/25 05:15:35;;;;;;;45.17;24.42;;;;;;;16.00;82.30;100114.44;4945876;28;20051;-79
2023/10/25 05:18:02;;;;;;;44.78;24.48;;;;;;;15.86;83.34;100123.28;4952588;28;20807;-79
2023/10/25 05:20:30;;;;;;;40.45;22.35;;;;;;;15.82;83.64;100119.31;4956105;28;20513;-79
2023/10/25 05:23:02;;;;;;;48.38;22.85;;;;;;;15.69;83.61;100116.41;4959946;28;20132;-80
2023/10/25 05:25:29;;;;;;;43.20;24.70;;;;;;;15.65;83.72;100131.16;4984593;28;20080;-79
2023/10/25 05:27:56;;;;;;;47.17;25.40;;;;;;;15.57;84.64;100114.16;4972164;28;20081;-79
2023/10/25 05:30:23;;;;;;;22.25;13.75;;;;;;;15.69;85.14;100111.06;4965033;28;20054;-80
2023/10/25 05:32:53;;;;;;;30.65;17.75;;;;;;;15.91;86.43;100101.34;4953371;28;20465;-80
2023/10/25 05:35:20;;;;;;;36.90;22.20;;;;;;;15.89;85.10;100082.78;4967124;28;20051;-79
2023/10/25 05:37:48;;;;;;;24.08;14.18;;;;;;;16.33;84.46;100150.75;4955814;28;20058;-77
2023/10/25 05:40:15;;;;;;;43.50;23.85;;;;;;;16.23;82.89;100129.59;4952115;28;20082;-80
2023/10/25 05:42:47;;;;;;;42.75;24.77;;;;;;;16.15;82.75;100137.72;4939481;28;20084;-78
2023/10/25 05:45:15;;;;;;;40.67;23.45;;;;;;;15.98;82.89;100126.34;4957709;28;20496;-79
2023/10/25 05:47:49;;;;;;;29.20;16.15;;;;;;;16.07;84.40;100140.47;4938548;28;20485;-80
2023/10/25 05:50:17;;;;;;;42.27;23.40;;;;;;;16.07;83.12;100151.19;4939114;28;20050;-80
2023/10/25 05:52:45;;;;;;;39.05;22.15;;;;;;;15.97;83.29;100157.66;4966531;28;20809;-77
2023/10/25 05:55:16;;;;;;;43.63;24.20;;;;;;;15.90;83.52;100170.09;4949512;28;20050;-80
2023/10/25 05:57:45;;;;;;;37.30;23.60;;;;;;;15.83;84.22;100169.16;4950937;28;20050;-79
2023/10/25 06:00:14;;;;;;;42.55;23.35;;;;;;;15.73;84.41;100166.75;4965247;28;20101;-79
2023/10/25 06:02:43;;;;;;;42.17;22.98;;;;;;;15.74;85.04;100178.28;4960879;28;20065;-79
2023/10/25 06:05:15;;;;;;;47.10;25.40;;;;;;;15.72;85.09;100173.09;4956290;28;20054;-80
2023/10/25 06:07:42;;;;;;;22.45;13.70;;;;;;;15.95;86.27;100178.41;4939617;28;20038;-79
2023/10/25 06:10:10;;;;;;;26.48;12.82;;;;;;;15.78;86.43;100107.34;4954611;28;20046;-78
2023/10/25 06:12:40;;;;;;;36.00;20.58;;;;;;;16.07;84.74;100140.47;4945108;28;20563;-80
2023/10/25 06:15:10;;;;;;;40.20;23.48;;;;;;;16.22;84.23;100178.84;4962751;28;20249;-78
2023/10/25 06:17:37;;;;;;;41.30;23.58;;;;;;;16.28;85.29;100169.22;4942172;28;20109;-80
2023/10/25 06:20:05;;;;;;;29.38;14.90;;;;;;;16.24;84.73;100150.03;4951405;28;20451;-80
2023/10/25 06:22:32;;;;;;;44.78;24.08;;;;;;;16.42;84.51;100161.19;4946167;28;20156;-78
2023/10/25 06:24:59;;;;;;;42.92;23.25;;;;;;;16.47;83.55;100181.25;4963278;28;20448;-77
2023/10/25 06:27:26;;;;;;;43.58;22.45;;;;;;;16.23;84.25;100167.09;4956326;28;20501;-79
2023/10/25 06:29:52;;;;;;;48.58;23.95;;;;;;;16.08;83.98;100153.69;4958991;28;20847;-80
2023/10/25 06:32:19;;;;;;;45.70;22.98;;;;;;;16.34;84.84;100193.44;4978186;28;20510;-79
2023/10/25 06:34:46;;;;;;;30.65;18.15;;;;;;;16.47;84.55;100198.13;4981139;28;20045;-78
2023/10/25 06:37:13;;;;;;;33.33;17.92;;;;;;;16.49;83.87;100172.00;4958685;28;20858;-78
2023/10/25 06:39:40;;;;;;;41.92;23.75;;;;;;;16.55;83.26;100181.13;4956705;28;20086;-79
2023/10/25 06:42:08;;;;;;;34.58;18.70;;;;;;;16.68;82.76;100186.69;4954916;28;20120;-78
2023/10/25 06:44:36;;;;;;;22.50;12.75;;;;;;;16.61;83.98;100165.16;4940146;28;20054;-78
2023/10/25 06:47:05;;;;;;;44.47;22.58;;;;;;;16.81;81.92;100202.13;4960218;28;20050;-78
2023/10/25 06:49:33;;;;;;;44.45;23.58;;;;;;;16.59;82.51;100187.78;4953967;28;20046;-79
2023/10/25 06:52:00;;;;;;;42.55;21.83;;;;;;;16.47;82.92;100189.28;4947619;28;20081;-78
2023/10/25 06:54:28;;;;;;;42.83;22.45;;;;;;;16.64;82.99;100217.53;4960255;28;20390;-79
2023/10/25 06:56:55;;;;;;;22.65;15.30;;;;;;;16.73;83.34;100211.06;4945964;28;20046;-82
2023/10/25 06:59:23;;;;;;;42.33;20.92;;;;;;;16.78;82.18;100203.34;4952051;28;20046;-78
2023/10/25 07:01:56;;;;;;;42.10;22.65;;;;;;;16.75;81.77;100202.81;4962112;28;20104;-77
2023/10/25 07:04:26;;;;;;;26.38;14.70;;;;;;;16.78;82.92;100173.84;4967531;28;20422;-78
2023/10/25 07:06:54;;;;;;;44.25;23.42;;;;;;;16.87;81.19;100180.78;4936879;28;20051;-80
2023/10/25 07:09:21;;;;;;;39.92;23.30;;;;;;;16.78;82.27;100191.75;4945174;28;20599;-80
2023/10/25 07:11:48;;;;;;;48.97;24.10;;;;;;;16.79;82.78;100182.72;4949146;28;20498;-81
2023/10/25 07:14:16;;;;;;;22.73;14.02;;;;;;;16.71;83.25;100175.59;4955325;28;20042;-78
2023/10/25 07:16:47;;;;;;;50.90;23.38;;;;;;;16.65;82.65;100160.22;4947683;28;20460;-79
2023/10/25 07:19:14;;;;;;;42.22;20.90;;;;;;;16.92;83.05;100192.75;4951570;28;20082;-78
2023/10/25 07:21:41;;;;;;;48.40;23.83;;;;;;;16.91;82.32;100186.56;4948249;28;20054;-77
2023/10/25 07:24:08;;;;;;;53.45;27.58;;;;;;;16.93;81.95;100195.25;4958269;28;20470;-79
2023/10/25 07:26:35;;;;;;;51.55;25.58;;;;;;;16.51;82.49;100121.75;4961748;28;20460;-77
2023/10/25 07:29:02;;;;;;;30.70;17.02;;;;;;;16.60;82.49;100158.13;4948264;28;20065;-78
2023/10/25 07:31:30;;;;;;;50.10;26.20;;;;;;;16.88;83.18;100185.09;4957199;28;20076;-79
2023/10/25 07:33:57;;;;;;;51.28;26.15;;;;;;;16.90;82.42;100184.94;4958851;28;20381;-78
2023/10/25 07:36:25;;;;;;;54.70;25.83;;;;;;;16.74;83.17;100164.47;4952706;28;20449;-78
2023/10/25 07:38:53;;;;;;;60.75;30.00;;;;;;;16.62;83.36;100156.06;4957979;28;20126;-79
2023/10/25 07:41:20;;;;;;;28.23;13.07;;;;;;;16.26;84.11;100091.72;4947023;28;20605;-79
2023/10/25 07:43:51;;;;;;;46.85;27.13;;;;;;;16.61;83.98;100142.88;4950373;28;20058;-79
2023/10/25 07:46:23;;;;;;;52.58;26.95;;;;;;;16.77;83.62;100157.91;4945182;28;20050;-79
2023/10/25 07:48:50;;;;;;;48.10;25.33;;;;;;;16.79;84.32;100175.50;4944356;28;20062;-78
2023/10/25 07:51:18;;;;;;;45.17;25.45;;;;;;;16.65;84.75;100154.88;4947810;28;20480;-79
2023/10/25 07:53:44;;;;;;;52.60;26.17;;;;;;;16.67;85.19;100147.47;4948652;28;20470;-80
2023/10/25 07:56:11;;;;;;;60.38;28.00;;;;;;;16.63;85.64;100151.56;4952474;28;20050;-79
2023/10/25 07:58:41;;;;;;;22.30;13.88;;;;;;;16.88;85.40;100186.97;4928108;28;20054;-80
2023/10/25 08:01:19;;;;;;;43.65;23.00;;;;;;;16.86;84.39;100178.25;4952487;28;20252;-78
2023/10/25 08:03:47;;;;;;;59.60;26.67;;;;;;;17.09;83.92;100199.59;4950495;28;20381;-81
2023/10/25 08:06:14;;;;;;;32.75;18.85;;;;;;;17.14;83.52;100194.50;4948023;28;20062;-80
2023/10/25 08:08:42;;;;;;;47.20;24.48;;;;;;;17.17;83.13;100202.16;4942236;28;20046;-81
2023/10/25 08:11:09;;;;;;;49.53;24.80;;;;;;;17.06;83.00;100189.22;4962810;28;20472;-81
2023/10/25 08:13:40;;;;;;;46.63;24.08;;;;;;;17.13;83.02;100184.75;4945835;28;20133;-80
2023/10/25 08:18:52;;;;;;;31.02;15.55;;;;;;;17.27;82.35;100186.56;4952058;28;20104;-79
2023/10/25 08:21:19;;;;;;;40.08;20.30;;;;;;;17.23;82.41;100201.41;4950368;28;20548;-80
2023/10/25 08:23:54;;;;;;;64.22;32.20;;;;;;;17.34;83.04;100199.25;4966733;28;20100;-79
2023/10/25 08:26:25;;;;;;;39.35;20.50;;;;;;;17.24;82.11;100186.13;4948712;28;20046;-79
2023/10/25 08:28:52;;;;;;;31.42;16.00;;;;;;;17.22;82.79;100164.84;4950352;28;20527;-80
2023/10/25 08:31:19;;;;;;;34.92;18.60;;;;;;;17.33;82.07;100176.94;4941296;28;20505;-78
2023/10/25 08:33:46;;;;;;;39.47;18.63;;;;;;;17.05;83.92;100139.31;4961326;28;20386;-80
2023/10/25 08:36:13;;;;;;;36.97;19.30;;;;;;;17.44;82.53;100186.34;4952615;28;20543;-79
2023/10/25 08:38:39;;;;;;;27.50;14.23;;;;;;;17.54;82.01;100189.53;4953233;28;20138;-80
2023/10/25 08:41:10;;;;;;;52.72;27.70;;;;;;;17.56;81.46;100195.53;4963350;28;20053;-80
2023/10/25 08:43:40;;;;;;;21.58;12.60;;;;;;;17.56;81.41;100192.84;4963941;28;20130;-79
2023/10/25 08:46:08;;;;;;;48.97;25.30;;;;;;;17.57;80.92;100202.56;4950576;28;20543;-79
2023/10/25 08:48:35;;;;;;;58.00;30.10;;;;;;;17.41;81.30;100186.72;4948505;28;20051;-79
2023/10/25 08:51:03;;;;;;;59.33;30.92;;;;;;;17.46;81.30;100195.03;4957905;28;20060;-79
2023/10/25 08:53:30;;;;;;;57.42;28.60;;;;;;;17.49;81.43;100191.94;4931452;28;20057;-79
2023/10/25 08:55:58;;;;;;;41.65;23.55;;;;;;;17.68;81.26;100191.31;4956778;28;20209;-78
2023/10/25 08:58:25;;;;;;;51.28;28.52;;;;;;;17.58;81.43;100188.13;4951442;28;20125;-77
2023/10/25 09:00:56;;;;;;;63.60;31.00;;;;;;;17.36;81.24;100173.06;4946343;28;20161;-80
2023/10/25 09:03:42;;;;;;;65.35;36.10;;;;;;;17.04;81.30;100119.72;4943774;28;20058;-80
2023/10/25 09:06:11;;;;;;;60.30;30.80;;;;;;;17.37;81.63;100172.84;4960407;28;20427;-80
2023/10/25 09:08:41;;;;;;;48.92;24.65;;;;;;;17.39;81.92;100186.06;4942674;28;20073;-79
2023/10/25 09:11:10;;;;;;;58.00;30.73;;;;;;;17.32;82.29;100172.59;4954470;28;20521;-78
2023/10/25 09:13:41;;;;;;;62.67;28.98;;;;;;;17.68;81.67;100199.38;4962226;28;20054;-80
2023/10/25 09:16:10;;;;;;;49.63;27.80;;;;;;;17.68;80.92;100198.53;4964348;28;20058;-80
2023/10/25 09:18:38;;;;;;;52.75;23.95;;;;;;;17.63;80.25;100172.28;4954695;28;20149;-78
2023/10/25 09:21:08;;;;;;;32.15;17.08;;;;;;;17.83;80.88;100201.19;4945935;28;20042;-78
2023/10/25 09:23:39;;;;;;;52.75;28.70;;;;;;;17.85;80.66;100188.41;4958618;28;20484;-79
2023/10/25 09:26:16;;;;;;;51.97;26.00;;;;;;;17.78;80.77;100184.78;4974982;28;20050;-79
2023/10/25 09:28:47;;;;;;;63.30;29.33;;;;;;;17.86;81.51;100198.09;4961249;28;20089;-78
2023/10/25 09:31:29;;;;;;;52.83;32.13;;;;;;;17.79;82.04;100183.75;4901447;28;20062;-82
2023/10/25 09:34:03;;;;;;;55.60;29.67;;;;;;;17.81;81.73;100187.09;4950632;28;20094;-80
2023/10/25 09:36:32;;;;;;;55.30;28.42;;;;;;;17.84;81.60;100194.78;4928438;28;20425;-80
2023/10/25 09:38:59;;;;;;;51.80;29.42;;;;;;;17.69;82.00;100181.41;4961253;28;20054;-80
2023/10/25 09:41:29;;;;;;;55.55;29.85;;;;;;;17.76;81.74;100194.88;4954407;28;20061;-78
2023/10/25 09:44:00;;;;;;;62.92;31.42;;;;;;;17.65;81.30;100180.16;4939388;28;20343;-79
2023/10/25 09:46:34;;;;;;;63.20;31.73;;;;;;;17.61;81.97;100170.81;4933853;28;20058;-80
2023/10/25 09:49:07;;;;;;;30.88;16.35;;;;;;;17.86;82.00;100187.34;4915370;28;20621;-79
2023/10/25 09:51:51;;;;;;;31.45;18.60;;;;;;;18.06;81.25;100180.31;4924384;28;20042;-77
2023/10/25 09:54:35;;;;;;;52.85;27.60;;;;;;;18.34;81.90;100188.31;4947605;28;20145;-78
2023/10/25 09:57:07;;;;;;;46.70;26.55;;;;;;;18.53;81.38;100192.16;4946941;28;20101;-78
2023/10/25 09:59:37;;;;;;;44.65;24.92;;;;;;;18.64;80.39;100176.50;4947386;28;20050;-79
2023/10/25 10:02:08;;;;;;;47.67;27.30;;;;;;;18.88;80.41;100178.69;4937239;28;20086;-79
2023/10/25 10:04:57;;;;;;;52.83;23.77;;;;;;;18.93;80.72;100180.78;4952084;28;20518;-80
2023/10/25 10:07:27;;;;;;;47.25;24.77;;;;;;;18.90;80.41;100182.00;4948600;28;20046;-78
2023/10/25 10:10:05;;;;;;;49.22;23.15;;;;;;;18.71;80.56;100142.41;4933615;28;20101;-79
2023/10/25 10:12:36;;;;;;;60.42;28.05;;;;;;;18.79;79.92;100164.63;4951618;28;20046;-79
2023/10/25 10:15:03;;;;;;;36.17;20.52;;;;;;;18.80;80.23;100168.13;4942711;28;20432;-80
2023/10/25 10:17:34;;;;;;;54.17;29.58;;;;;;;18.87;81.61;100160.09;4934873;28;20046;-81
2023/10/25 10:20:05;;;;;;;56.43;27.07;;;;;;;18.91;80.29;100172.94;4949084;28;20049;-81
2023/10/25 10:22:33;;;;;;;55.13;29.00;;;;;;;18.78;81.46;100164.81;4941872;28;20050;-79
2023/10/25 10:25:04;;;;;;;57.45;28.42;;;;;;;18.93;81.88;100181.63;4914878;28;20047;-79
2023/10/25 10:27:40;;;;;;;22.97;12.87;;;;;;;18.82;79.96;100155.31;4921341;28;20061;-79
2023/10/25 10:30:30;;;;;;;22.65;13.20;;;;;;;18.73;77.77;100121.53;4949924;28;20489;-79
2023/10/25 10:32:57;;;;;;;62.65;28.45;;;;;;;19.07;80.45;100169.03;4930193;28;20493;-77
2023/10/25 10:35:25;;;;;;;34.55;18.48;;;;;;;18.98;79.69;100130.75;4914386;28;20101;-78
2023/10/25 10:38:03;;;;;;;20.35;12.30;;;;;;;18.58;79.11;100049.09;4942694;28;20070;-79
2023/10/25 10:40:30;;;;;;;;;;;;;;;19.35;81.84;100168.09;4944736;28;20430;-80
2023/10/25 10:42:57;;;;;;;58.25;30.55;;;;;;;19.26;81.56;100153.97;4938576;28;19921;-79
2023/10/25 10:45:29;;;;;;;52.10;29.98;;;;;;;19.37;81.69;100156.09;4935325;28;20053;-80
2023/10/25 10:48:21;;;;;;;26.20;14.70;;;;;;;19.35;80.60;100141.19;4936272;28;20168;-78
2023/10/25 10:50:49;;;;;;;36.70;19.63;;;;;;;19.44;77.73;100148.00;4918242;28;20379;-79
2023/10/25 10:53:16;;;;;;;64.30;28.45;;;;;;;19.39;80.10;100148.63;4943639;28;20051;-78
2023/10/25 10:55:45;;;;;;;36.45;18.08;;;;;;;19.45;80.93;100148.84;4933562;28;20046;-79
2023/10/25 10:58:13;;;;;;;45.83;21.05;;;;;;;19.40;78.65;100141.38;4940734;28;20055;-79
2023/10/25 11:00:44;;;;;;;20.83;11.02;;;;;;;19.36;76.44;100115.91;4953648;28;20849;-79
2023/10/25 11:03:12;;;;;;;27.70;15.05;;;;;;;19.44;76.00;100123.78;4947492;28;20070;-79
2023/10/25 11:05:39;;;;;;;19.75;11.20;;;;;;;19.49;76.69;100120.47;4943204;28;20121;-79
2023/10/25 11:08:14;;;;;;;38.45;21.00;;;;;;;19.51;77.39;100118.41;4950546;28;20434;-79
2023/10/25 11:10:43;;;;;;;22.00;13.20;;;;;;;19.32;75.61;100083.22;4950167;28;20141;-79
2023/10/25 11:13:17;;;;;;;18.27;10.55;;;;;;;19.63;76.09;100119.44;4944347;28;20592;-79
2023/10/25 11:15:48;;;;;;;20.80;10.45;;;;;;;19.56;75.82;100108.66;4933964;28;20488;-80
2023/10/25 11:18:15;;;;;;;35.58;20.70;;;;;;;19.37;79.29;100075.34;4935753;28;20539;-79
2023/10/25 11:20:41;;;;;;;21.42;10.95;;;;;;;19.74;76.12;100118.03;4947907;28;20249;-80